Time;durP1;ratioP1;P1;durP2;ratioP2;P2;SDS_P1;SDS_P2;PMS_P1;PMS_P2;Temp;Humidity;BMP_temperature;BMP_pressure;BME280_temperature;BME280_humidity;BME280_pressure;Samples;Min_cycle;Max_cycle;Signal;HPM_P1;HPM_P2
2021/04/05 04:47:38;;;;;;;20.92;10.13;;;;;;;6.85;68.44;98185.34;1660777;85;21172;-54
2021/04/05 04:50:10;;;;;;;18.95;11.18;;;;;;;7.60;64.67;98184.61;1683669;85;21470;-50
2021/04/05 04:52:41;;;;;;;23.40;11.15;;;;;;;8.15;62.40;98186.37;1650260;85;21318;-52
2021/04/05 04:55:12;;;;;;;21.60;9.98;;;;;;;8.68;59.91;98184.02;1628984;88;21230;-50
2021/04/05 04:57:41;;;;;;;;;;;;;;;9.14;57.96;98175.00;1664271;85;21186;-53
2021/04/05 05:00:13;;;;;;;18.35;9.23;;;;;;;9.58;56.12;98169.54;1685016;85;20230;-54
2021/04/05 05:02:43;;;;;;;22.32;9.40;;;;;;;9.96;54.47;98171.14;1684080;85;21174;-54
2021/04/05 05:05:14;;;;;;;23.15;12.45;;;;;;;10.37;53.01;98163.08;1683658;85;21637;-54
2021/04/05 05:07:44;;;;;;;;;;;;;;;10.70;51.89;98155.23;1651500;85;21158;-52
2021/04/05 05:10:15;;;;;;;56.20;33.88;;;;;;;11.05;50.94;98161.38;1652130;85;20143;-54
2021/04/05 05:12:44;;;;;;;42.10;29.65;;;;;;;11.41;49.68;98163.52;1653675;84;21355;-54
2021/04/05 05:15:15;;;;;;;25.27;15.13;;;;;;;11.72;48.56;98156.29;1683433;84;21166;-53
2021/04/05 05:17:46;;;;;;;19.07;10.43;;;;;;;11.98;47.37;98150.51;1683002;85;21178;-53
2021/04/05 05:20:18;;;;;;;15.15;8.38;;;;;;;12.19;46.91;98146.44;1631531;86;21401;-44
2021/04/05 05:22:56;;;;;;;17.95;9.75;;;;;;;12.47;46.29;98148.28;1627119;87;21761;-46
2021/04/05 05:25:25;;;;;;;20.82;10.98;;;;;;;12.56;46.69;98147.38;1630520;88;21705;-49
2021/04/05 05:28:01;;;;;;;20.72;10.03;;;;;;;12.60;45.35;98136.09;1673222;84;21170;-45
2021/04/05 05:30:31;;;;;;;19.25;10.48;;;;;;;12.81;44.69;98137.25;1675084;84;21138;-46
2021/04/05 05:33:07;;;;;;;19.92;10.60;;;;;;;12.92;44.26;98136.38;1683597;85;21222;-45
2021/04/05 05:35:34;;;;;;;19.40;10.20;;;;;;;13.12;43.76;98132.44;1652757;85;21154;-46
2021/04/05 05:38:05;;;;;;;20.90;9.95;;;;;;;13.29;43.31;98129.28;1665620;84;21165;-57
2021/04/05 05:40:35;;;;;;;19.17;9.45;;;;;;;13.50;43.09;98123.77;1683166;85;21194;-57
2021/04/05 05:43:13;;;;;;;21.00;9.95;;;;;;;13.68;42.78;98124.80;1675086;85;21163;-60
2021/04/05 05:45:57;;;;;;;23.42;10.45;;;;;;;13.83;42.36;98118.91;1670793;84;21304;-58
2021/04/05 05:48:43;;;;;;;22.58;10.75;;;;;;;13.91;42.09;98114.48;1631848;84;21633;-54
2021/04/05 05:52:08;;;;;;;21.20;11.75;;;;;;;14.04;41.33;98115.42;1704555;84;21189;-48
2021/04/05 05:55:37;;;;;;;24.37;12.23;;;;;;;14.12;41.33;98118.18;1693459;82;21606;-47
2021/04/05 05:58:30;;;;;;;21.05;9.48;;;;;;;14.32;40.99;98119.70;1664351;84;21195;-47
2021/04/05 06:01:39;;;;;;;21.70;9.63;;;;;;;14.51;40.48;98116.77;1707196;83;21204;-49
2021/04/05 06:04:32;;;;;;;18.12;9.58;;;;;;;14.69;40.27;98114.27;1682068;84;21207;-46
2021/04/05 06:07:38;;;;;;;23.65;9.75;;;;;;;14.78;40.05;98101.59;1677519;84;22367;-48
2021/04/05 06:10:45;;;;;;;20.15;9.78;;;;;;;14.83;39.75;98108.28;1634513;85;21311;-46
2021/04/05 06:13:38;;;;;;;22.45;11.97;;;;;;;14.78;39.76;98104.78;1677739;84;21176;-48
2021/04/05 06:16:25;;;;;;;21.52;11.83;;;;;;;14.89;39.68;98106.47;1675553;85;21157;-49
2021/04/05 06:19:19;;;;;;;26.12;11.18;;;;;;;15.09;39.37;98105.83;1676791;85;21365;-47
2021/04/05 06:21:54;;;;;;;19.32;10.75;;;;;;;15.26;38.85;98102.50;1675691;85;21200;-51
2021/04/05 06:24:34;;;;;;;18.40;10.13;;;;;;;15.20;38.93;98098.74;1673760;85;21342;-48
2021/04/05 06:27:28;;;;;;;21.35;10.08;;;;;;;15.09;38.68;98096.02;1669519;84;21386;-48
2021/04/05 06:30:14;;;;;;;25.75;13.80;;;;;;;15.02;38.97;98103.91;1684935;84;21150;-49
2021/04/05 06:33:10;;;;;;;18.30;10.38;;;;;;;15.05;39.25;98099.42;1674793;84;21233;-58
2021/04/05 06:36:17;;;;;;;21.87;9.23;;;;;;;15.06;38.82;98094.38;1645029;86;21141;-49
2021/04/05 06:38:56;;;;;;;26.40;18.57;;;;;;;15.00;38.95;98095.41;1634058;84;21379;-56
2021/04/05 06:41:39;;;;;;;31.20;21.30;;;;;;;14.93;38.85;98090.32;1670932;84;21817;-47
2021/04/05 06:44:34;;;;;;;21.45;11.45;;;;;;;14.83;38.60;98087.05;1681319;84;21246;-49
2021/04/05 06:47:45;;;;;;;28.12;16.27;;;;;;;14.75;38.33;98084.88;1667459;84;21201;-48
2021/04/05 06:50:37;;;;;;;17.70;8.90;;;;;;;14.64;38.28;98084.52;1636616;87;21225;-48
2021/04/05 06:53:24;;;;;;;17.87;9.50;;;;;;;14.51;37.99;98088.39;1636489;86;21245;-53
2021/04/05 06:55:56;;;;;;;15.85;8.83;;;;;;;14.28;38.56;98084.16;1636535;87;21346;-60
2021/04/05 06:58:56;;;;;;;13.95;7.87;;;;;;;14.03;38.81;98084.68;1636588;87;21356;-52
2021/04/05 07:01:49;;;;;;;14.50;6.90;;;;;;;13.84;38.94;98082.61;1636324;88;21363;-52
2021/04/05 07:04:46;;;;;;;12.85;7.25;;;;;;;13.56;38.55;98080.42;1605227;87;21224;-53
2021/04/05 07:07:46;;;;;;;16.82;8.35;;;;;;;13.20;38.88;98075.15;1661177;85;21179;-53
2021/04/05 07:10:28;;;;;;;13.30;7.75;;;;;;;12.76;39.59;98076.33;1693964;85;21199;-52
2021/04/05 07:13:22;;;;;;;17.05;8.05;;;;;;;12.37;40.59;98072.25;1683086;84;21141;-53
2021/04/05 07:16:30;;;;;;;15.83;7.78;;;;;;;12.07;40.94;98077.00;1673914;84;21179;-49
2021/04/05 07:19:26;;;;;;;17.85;10.03;;;;;;;11.81;41.17;98069.89;1618065;88;21200;-48
2021/04/05 07:22:41;;;;;;;19.32;9.98;;;;;;;11.55;40.82;98071.73;1810412;79;23137;-49
2021/04/05 07:25:19;;;;;;;19.00;10.38;;;;;;;11.33;41.09;98064.92;1788178;80;21153;-49
2021/04/05 07:28:16;;;;;;;18.80;10.10;;;;;;;11.10;41.59;98057.84;1768263;79;21704;-52
2021/04/05 07:31:09;;;;;;;19.10;8.70;;;;;;;10.94;42.10;98054.05;1772049;80;21145;-52
2021/04/05 07:33:39;;;;;;;16.52;8.30;;;;;;;10.83;42.22;98041.14;1761789;79;21172;-57
2021/04/05 07:36:29;;;;;;;21.13;5.73;;;;;;;10.66;42.26;98042.85;1788057;80;21193;-50
2021/04/05 07:39:09;;;;;;;13.72;6.60;;;;;;;10.52;41.94;98042.78;1786422;79;21460;-52
2021/04/05 07:42:21;;;;;;;24.23;8.73;;;;;;;10.39;41.80;98033.78;1776440;80;21272;-60
2021/04/05 07:45:10;;;;;;;16.70;6.97;;;;;;;10.30;42.13;98034.61;1760226;80;21226;-57
2021/04/05 07:48:00;;;;;;;20.52;7.12;;;;;;;10.26;42.38;98029.48;1750711;80;21162;-54
2021/04/05 07:50:39;;;;;;;13.55;5.60;;;;;;;10.19;42.71;98016.39;1717181;80;21751;-56
2021/04/05 07:53:48;;;;;;;17.30;6.83;;;;;;;10.21;42.84;98010.41;1755159;81;21155;-54
2021/04/05 07:56:32;;;;;;;18.80;6.75;;;;;;;10.22;42.46;98015.95;1755648;80;21177;-55
2021/04/05 07:59:16;;;;;;;11.65;5.37;;;;;;;10.28;42.59;98012.97;1745413;80;21311;-55
2021/04/05 08:02:03;;;;;;;16.15;8.20;;;;;;;10.38;42.50;98013.22;1746539;80;21185;-54
2021/04/05 08:05:15;;;;;;;19.60;7.37;;;;;;;10.53;42.75;98009.61;1722951;81;21292;-56
2021/04/05 08:08:02;;;;;;;12.88;5.33;;;;;;;10.69;42.00;97998.12;1748728;80;21649;-49
2021/04/05 08:10:57;;;;;;;11.93;5.60;;;;;;;10.83;41.59;97991.56;1748985;80;21188;-58
2021/04/05 08:13:45;;;;;;;11.70;4.80;;;;;;;10.92;40.68;97986.77;1751997;80;21317;-60
2021/04/05 08:16:48;;;;;;;13.75;6.03;;;;;;;10.95;40.13;97987.09;1744649;80;21221;-55
2021/04/05 08:19:40;;;;;;;12.10;5.65;;;;;;;10.99;40.56;97979.53;1755974;80;21108;-59
2021/04/05 08:22:49;;;;;;;16.42;4.97;;;;;;;11.09;40.79;97979.23;1743196;81;21146;-51
2021/04/05 08:25:41;;;;;;;18.95;6.47;;;;;;;11.13;40.89;97981.70;1743320;81;21597;-61
2021/04/05 08:28:21;;;;;;;17.30;8.05;;;;;;;11.24;40.67;97976.61;1743492;81;21169;-58
2021/04/05 08:31:06;;;;;;;22.98;10.05;;;;;;;11.31;40.75;97966.75;1746171;81;21153;-61
2021/04/05 08:34:05;;;;;;;35.38;15.98;;;;;;;11.46;40.47;97968.86;1739372;81;21136;-58
2021/04/05 08:37:01;;;;;;;26.15;11.57;;;;;;;11.46;40.47;97968.86;1741751;80;21228;-59
2021/04/05 08:40:08;;;;;;;13.75;6.83;;;;;;;11.40;39.68;97958.20;1743406;81;21142;-55
2021/04/05 08:43:00;;;;;;;16.77;8.08;;;;;;;11.30;39.66;97955.39;1679683;85;21168;-58
2021/04/05 08:45:44;;;;;;;24.75;12.15;;;;;;;11.22;39.70;97943.87;1693415;84;21215;-57
2021/04/05 08:48:19;;;;;;;22.73;11.25;;;;;;;11.20;39.91;97943.31;1695501;84;21562;-56
2021/04/05 08:50:59;;;;;;;19.92;8.73;;;;;;;11.10;39.94;97943.91;1695959;84;21614;-58
2021/04/05 08:53:29;;;;;;;19.75;8.70;;;;;;;10.98;40.05;97935.22;1707643;84;21182;-54
2021/04/05 08:55:59;;;;;;;14.28;6.90;;;;;;;10.98;40.05;97935.22;1686941;84;21174;-58
2021/04/05 08:58:42;;;;;;;13.03;6.75;;;;;;;11.02;40.08;97928.97;1711762;84;21198;-61
2021/04/05 09:01:15;;;;;;;20.68;9.88;;;;;;;11.04;39.75;97927.69;1672796;85;21660;-52
2021/04/05 09:03:47;;;;;;;24.10;11.88;;;;;;;10.96;39.65;97924.11;1710381;84;21159;-58
2021/04/05 09:06:23;;;;;;;20.25;9.15;;;;;;;10.96;39.65;97924.11;1765525;81;21111;-55
2021/04/05 09:08:57;;;;;;;25.15;10.55;;;;;;;10.83;39.34;97916.43;1685682;85;21312;-56
2021/04/05 09:11:29;;;;;;;18.48;8.13;;;;;;;10.83;39.34;97916.43;1766652;81;21228;-59
2021/04/05 09:14:07;;;;;;;20.90;9.63;;;;;;;10.67;39.75;97904.79;1760906;81;21180;-57
2021/04/05 09:17:14;;;;;;;25.15;11.68;;;;;;;10.65;39.81;97900.24;1750271;81;21152;-63
2021/04/05 09:20:23;;;;;;;23.98;10.20;;;;;;;10.61;39.20;97896.48;1752422;82;21213;-49
2021/04/05 09:23:23;;;;;;;32.85;16.52;;;;;;;10.61;39.20;97896.48;1753195;82;21326;-54
2021/04/05 09:26:33;;;;;;;47.27;23.60;;;;;;;10.54;39.39;97895.78;1761310;81;21150;-55
2021/04/05 09:29:22;;;;;;;30.02;14.07;;;;;;;10.62;39.26;97888.34;1762910;81;21127;-55
2021/04/05 09:32:30;;;;;;;23.32;8.93;;;;;;;10.74;39.14;97884.38;1766526;81;21143;-58
2021/04/05 09:35:29;;;;;;;24.55;10.00;;;;;;;10.76;38.62;97880.17;1672613;85;21660;-59
2021/04/05 09:38:22;;;;;;;22.25;8.98;;;;;;;10.80;38.42;97875.53;1688157;84;21194;-53
2021/04/05 09:41:45;;;;;;;21.27;8.30;;;;;;;10.83;38.19;97864.50;1686266;84;21179;-47
2021/04/05 09:44:39;;;;;;;23.07;8.83;;;;;;;10.88;37.40;97862.49;1766353;81;21570;-55
2021/04/05 09:47:51;;;;;;;33.35;16.30;;;;;;;10.88;37.40;97862.49;1726548;81;21167;-53
2021/04/05 09:51:05;;;;;;;24.95;10.82;;;;;;;10.85;36.54;97866.41;1681636;85;21237;-55
2021/04/05 09:54:02;;;;;;;17.37;8.48;;;;;;;10.93;35.76;97860.48;1693960;84;21182;-52
2021/04/05 09:56:36;;;;;;;16.57;6.50;;;;;;;11.11;35.53;97851.87;1756230;81;21204;-57
2021/04/05 09:59:19;;;;;;;21.52;6.25;;;;;;;11.61;34.84;97841.94;1726914;82;21158;-47
2021/04/05 10:01:54;;;;;;;20.35;6.37;;;;;;;11.61;34.84;97841.94;1735189;82;21319;-56
2021/04/05 10:04:24;;;;;;;14.28;5.58;;;;;;;11.90;34.48;97835.30;1730208;81;21612;-52
2021/04/05 10:06:54;;;;;;;13.45;5.17;;;;;;;12.09;34.51;97827.39;1709460;82;21754;-54
2021/04/05 10:09:31;;;;;;;10.90;5.12;;;;;;;12.34;33.52;97820.36;1744277;81;21299;-52
2021/04/05 10:12:05;;;;;;;20.10;6.87;;;;;;;12.34;33.52;97820.36;1739193;82;21178;-51
2021/04/05 10:14:39;;;;;;;29.37;14.93;;;;;;;12.48;32.59;97823.44;1746569;81;21559;-50
2021/04/05 10:17:10;;;;;;;20.32;7.70;;;;;;;12.44;32.91;97822.32;1766618;81;21150;-52
2021/04/05 10:19:41;;;;;;;14.00;6.80;;;;;;;12.38;33.43;97823.30;1766707;81;21337;-55
2021/04/05 10:22:18;;;;;;;16.80;8.43;;;;;;;12.37;33.58;97813.25;1728266;83;21878;-50
2021/04/05 10:24:50;;;;;;;12.50;5.60;;;;;;;12.45;33.60;97814.17;1689360;83;21173;-51
2021/04/05 10:27:20;;;;;;;10.53;5.12;;;;;;;12.49;32.65;97806.53;1665618;83;21620;-50
2021/04/05 10:29:51;;;;;;;15.30;7.05;;;;;;;12.53;32.53;97806.85;1720111;83;21156;-50
2021/04/05 10:32:23;;;;;;;17.12;7.58;;;;;;;12.49;33.04;97798.08;1724473;83;21645;-50
2021/04/05 10:34:59;;;;;;;12.82;6.67;;;;;;;12.42;33.43;97794.82;1706493;83;21185;-52
2021/04/05 10:37:34;;;;;;;18.45;7.95;;;;;;;12.37;33.82;97788.67;1710957;83;21160;-48
2021/04/05 10:40:05;;;;;;;12.05;6.53;;;;;;;12.28;33.96;97787.52;1701181;83;21172;-51
2021/04/05 10:42:40;;;;;;;18.35;9.13;;;;;;;12.21;34.29;97785.02;1694552;83;21640;-52
2021/04/05 10:45:13;;;;;;;15.05;6.75;;;;;;;12.25;34.40;97774.78;1699977;83;21170;-54
2021/04/05 10:48:04;;;;;;;15.68;7.17;;;;;;;12.41;34.51;97768.13;1695384;85;21412;-54
2021/04/05 10:50:59;;;;;;;14.35;5.90;;;;;;;12.59;34.38;97768.86;1717876;82;21159;-51
2021/04/05 10:53:28;;;;;;;13.62;7.08;;;;;;;12.66;33.64;97766.29;1734243;82;21205;-52
2021/04/05 10:56:04;;;;;;;13.50;6.87;;;;;;;12.59;33.68;97761.72;1736695;82;21316;-50
2021/04/05 10:59:01;;;;;;;14.35;6.45;;;;;;;12.54;33.52;97764.83;1736673;82;21133;-55
2021/04/05 11:01:33;;;;;;;11.12;5.80;;;;;;;12.53;33.71;97756.62;1714304;83;21178;-55
2021/04/05 11:04:08;;;;;;;9.30;5.15;;;;;;;12.62;33.56;97744.06;1713276;82;21181;-52
2021/04/05 11:06:38;;;;;;;14.78;6.90;;;;;;;12.78;33.45;97745.52;1684313;83;21576;-48
2021/04/05 11:09:09;;;;;;;14.63;6.20;;;;;;;12.96;32.84;97741.20;1716196;83;21546;-58
2021/04/05 11:11:40;;;;;;;12.35;6.00;;;;;;;12.94;32.19;97739.34;1713162;82;21236;-55
2021/04/05 11:14:14;;;;;;;18.67;7.05;;;;;;;12.89;32.17;97728.19;1717071;82;21134;-55
2021/04/05 11:16:53;;;;;;;15.93;7.30;;;;;;;12.83;32.21;97729.72;1681796;82;21235;-60
2021/04/05 11:19:48;;;;;;;13.78;6.85;;;;;;;12.69;32.36;97739.89;1712512;82;21137;-48
2021/04/05 11:22:16;;;;;;;14.63;5.58;;;;;;;12.58;32.65;97724.44;1724218;82;21309;-51
2021/04/05 11:24:56;;;;;;;10.60;5.40;;;;;;;12.57;32.61;97723.38;1735971;81;21243;-55
2021/04/05 11:27:28;;;;;;;18.92;8.20;;;;;;;12.53;33.01;97714.33;1734194;82;21205;-54
2021/04/05 11:30:02;;;;;;;24.95;10.60;;;;;;;12.55;33.55;97710.91;1738609;81;21164;-59
2021/04/05 11:32:34;;;;;;;24.50;12.07;;;;;;;12.60;33.27;97707.00;1725101;82;21182;-58
2021/04/05 11:35:07;;;;;;;20.27;9.10;;;;;;;12.61;33.64;97697.49;1740132;81;21627;-50
2021/04/05 11:37:39;;;;;;;16.97;8.03;;;;;;;12.73;33.57;97700.81;1753093;82;21140;-50
2021/04/05 11:40:12;;;;;;;18.23;8.35;;;;;;;12.86;33.02;97698.81;1750836;82;21181;-53
2021/04/05 11:42:46;;;;;;;21.00;12.33;;;;;;;12.81;32.97;97690.83;1743789;80;21297;-51
2021/04/05 11:45:29;;;;;;;16.30;8.80;;;;;;;12.76;32.85;97689.73;1740713;80;21153;-56
2021/04/05 11:48:00;;;;;;;15.20;8.03;;;;;;;12.63;32.93;97686.16;1747872;82;21569;-49
2021/04/05 11:50:30;;;;;;;21.70;11.28;;;;;;;12.53;33.32;97670.19;1748070;81;21284;-55
2021/04/05 11:53:06;;;;;;;14.70;6.90;;;;;;;12.63;33.74;97665.02;1732950;80;21194;-54
2021/04/05 11:55:38;;;;;;;13.13;6.87;;;;;;;12.88;33.95;97657.83;1742031;81;21185;-56
2021/04/05 11:58:27;;;;;;;17.50;5.83;;;;;;;13.18;33.29;97659.13;1746919;82;21196;-52
2021/04/05 12:01:03;;;;;;;26.63;6.07;;;;;;;13.29;31.72;97646.27;1747921;82;21577;-50
2021/04/05 12:03:45;;;;;;;10.43;5.25;;;;;;;13.26;32.11;97641.50;1754306;81;21147;-54
2021/04/05 12:06:25;;;;;;;25.35;8.33;;;;;;;13.34;32.31;97642.34;1684400;84;21187;-60
2021/04/05 12:09:03;;;;;;;19.30;6.72;;;;;;;13.47;32.10;97646.39;1700106;84;21190;-51
2021/04/05 12:11:46;;;;;;;11.10;6.37;;;;;;;13.59;31.84;97651.48;1748211;82;21562;-53
2021/04/05 12:14:26;;;;;;;13.00;6.20;;;;;;;13.53;31.65;97643.54;1748097;82;21170;-51
2021/04/05 12:16:57;;;;;;;12.30;6.70;;;;;;;13.29;31.87;97639.13;1712235;84;21161;-51
2021/04/05 12:19:41;;;;;;;12.75;6.58;;;;;;;13.05;32.37;97632.58;1712530;84;21121;-53
2021/04/05 12:22:11;;;;;;;18.32;7.35;;;;;;;12.86;32.57;97628.73;1723711;81;21160;-56
2021/04/05 12:24:43;;;;;;;12.15;6.22;;;;;;;12.83;32.90;97627.90;1747295;81;21225;-55
2021/04/05 12:27:15;;;;;;;20.10;8.43;;;;;;;12.94;33.00;97617.67;1743089;81;21138;-56
2021/04/05 12:29:44;;;;;;;14.20;6.42;;;;;;;13.11;33.23;97618.86;1756690;81;21183;-55
2021/04/05 12:32:18;;;;;;;18.00;7.60;;;;;;;13.22;33.52;97613.42;1774242;81;21300;-61
2021/04/05 12:34:56;;;;;;;16.32;7.55;;;;;;;13.28;32.47;97608.95;1693682;84;21204;-51
2021/04/05 12:37:27;;;;;;;13.98;6.65;;;;;;;13.16;32.29;97602.50;1674682;85;21137;-54
2021/04/05 12:40:02;;;;;;;14.80;6.00;;;;;;;12.94;32.44;97589.38;1699545;83;21599;-52
2021/04/05 12:42:37;;;;;;;18.67;8.83;;;;;;;12.73;32.41;97587.62;1694549;84;21194;-52
2021/04/05 12:45:11;;;;;;;24.92;13.58;;;;;;;12.52;32.82;97580.05;1695164;84;21234;-50
2021/04/05 12:47:43;;;;;;;20.02;8.45;;;;;;;12.51;33.07;97579.78;1694718;83;21207;-57
2021/04/05 12:50:16;;;;;;;19.20;6.67;;;;;;;12.60;33.14;97577.47;1658668;83;21133;-55
2021/04/05 12:52:48;;;;;;;12.68;6.30;;;;;;;12.63;32.83;97565.88;1664851;84;21621;-59
2021/04/05 12:55:19;;;;;;;20.82;6.75;;;;;;;12.60;32.63;97561.08;1665001;83;21161;-53
2021/04/05 12:57:48;;;;;;;20.48;8.08;;;;;;;12.60;32.96;97562.92;1692943;83;21561;-54
2021/04/05 13:00:21;;;;;;;14.20;6.60;;;;;;;12.60;33.45;97559.76;1651047;84;21343;-53
2021/04/05 13:03:19;;;;;;;18.12;7.78;;;;;;;12.66;33.02;97548.70;1704367;83;21597;-56
2021/04/05 13:06:10;;;;;;;32.35;9.63;;;;;;;12.72;32.84;97543.72;1695819;83;21204;-53
2021/04/05 13:08:56;;;;;;;16.55;7.30;;;;;;;12.72;33.25;97552.98;1698041;83;22283;-48
2021/04/05 13:11:35;;;;;;;15.80;7.00;;;;;;;12.63;32.79;97545.25;1685055;84;21206;-57
2021/04/05 13:14:15;;;;;;;11.75;6.85;;;;;;;12.58;32.80;97535.95;1710915;82;21197;-61
2021/04/05 13:17:12;;;;;;;17.07;8.05;;;;;;;12.55;32.83;97537.77;1685304;84;21174;-56
2021/04/05 13:19:50;;;;;;;22.98;11.03;;;;;;;12.58;33.00;97535.95;1680336;84;21674;-67
2021/04/05 13:22:24;;;;;;;24.20;11.63;;;;;;;12.55;32.81;97533.28;1657410;86;21370;-58
2021/04/05 13:25:07;;;;;;;22.25;10.65;;;;;;;12.53;32.76;97522.70;1721328;83;21604;-58
2021/04/05 13:27:37;;;;;;;28.25;7.87;;;;;;;12.49;32.69;97526.36;1767226;81;21617;-55
2021/04/05 13:30:10;;;;;;;26.97;10.40;;;;;;;12.37;32.79;97520.45;1770013;81;21215;-62
2021/04/05 13:32:43;;;;;;;23.32;10.23;;;;;;;12.29;32.95;97514.31;1745990;82;21209;-58
2021/04/05 13:35:21;;;;;;;23.70;10.35;;;;;;;12.22;32.94;97515.31;1747495;81;21176;-59
2021/04/05 13:38:01;;;;;;;26.97;11.57;;;;;;;12.20;33.07;97509.47;1728173;82;21578;-62
2021/04/05 13:40:34;;;;;;;25.05;10.75;;;;;;;12.23;33.24;97506.34;1723582;83;21997;-55
2021/04/05 13:43:18;;;;;;;20.10;9.43;;;;;;;12.15;33.52;97509.41;1751486;81;21208;-56
2021/04/05 13:45:54;;;;;;;27.22;8.73;;;;;;;12.10;33.63;97507.25;1729885;81;21176;-59
2021/04/05 13:48:27;;;;;;;16.77;6.80;;;;;;;12.07;33.77;97497.20;1733046;82;21150;-55
2021/04/05 13:51:02;;;;;;;17.40;8.18;;;;;;;12.06;33.82;97499.58;1719656;82;21138;-48
2021/04/05 13:53:39;;;;;;;13.00;7.30;;;;;;;12.03;33.75;97479.72;1745858;82;21154;-55
2021/04/05 13:56:11;;;;;;;15.43;6.40;;;;;;;12.02;34.00;97476.02;1708270;82;21329;-51
2021/04/05 13:58:46;;;;;;;24.65;7.17;;;;;;;11.98;33.81;97473.07;1721009;82;21194;-56
